Decoded Metar for SARE (RESISTENCIA in ARGENTINA) (IATA:RES) | Meteo·Mobile Aviation Weather
aviador You're here:

SARE Decoded Metar

RESISTENCIA in ARGENTINA
Report Time2018-10-17 04:00:00
UTC Time2018-10-17 04:55:55
Flight Rules vfr VFR
WindVRB at 02 kt
Visibility9999 m
Phenomena:N/A
Clouds:N/A
Expected CloudBase > 1,200 ft AGL from Temp-Dew spread
CeilingNone
Temp21°C (ISA +6)
Dew Point18°C (83% RH)
QNH1004 hPa
Density Alt1,490 ft
Elevation171 ft
Report Wrong Elevation
Raw Report
METAR SARE 170400Z VRB02KT CAVOK 21/18 Q1004=

Extra information for SARE:More info

Metar Taf Metar & Taf Last 4 Metars F.Rules Stats Wind Profile Meteogram Temp Stats Airport Information Weather charts Add Link Nearby VenuesMetar ALERT Operation Metar Decoded Social comments